Time;durP1;ratioP1;P1;durP2;ratioP2;P2;SDS_P1;SDS_P2;PMS_P1;PMS_P2;Temp;Humidity;BMP_temperature;BMP_pressure;BME280_temperature;BME280_humidity;BME280_pressure;Samples;Min_cycle;Max_cycle;Signal;HPM_P1;HPM_P2
2022/01/31 00:00:11;;;;;;;10.43;1.35;;;;;;;6.98;100.00;101743.16;5098041;28;20059;-54
2022/01/31 00:02:39;;;;;;;7.40;1.20;;;;;;;7.12;100.00;101745.41;5096711;28;20526;-54
2022/01/31 00:05:10;;;;;;;7.57;1.25;;;;;;;7.12;100.00;101734.00;5097562;28;20139;-53
2022/01/31 00:07:38;;;;;;;5.43;0.75;;;;;;;7.24;100.00;101749.47;5097216;28;20052;-54
2022/01/31 00:10:10;;;;;;;8.23;1.23;;;;;;;7.27;100.00;101733.56;5096692;28;20056;-54
2022/01/31 00:12:48;;;;;;;2.35;0.95;;;;;;;7.33;100.00;101738.66;5096440;28;20058;-53
2022/01/31 00:15:17;;;;;;;5.15;0.90;;;;;;;7.31;100.00;101751.03;5096287;28;20056;-54
2022/01/31 00:17:45;;;;;;;3.40;0.88;;;;;;;7.30;100.00;101741.41;5097035;28;20052;-53
2022/01/31 00:20:15;;;;;;;2.33;0.90;;;;;;;7.29;100.00;101715.91;5096779;28;20056;-54
2022/01/31 00:22:43;;;;;;;4.45;0.70;;;;;;;7.28;100.00;101719.47;5096475;28;20059;-54
2022/01/31 00:25:11;;;;;;;3.67;1.02;;;;;;;7.14;100.00;101717.19;5096175;28;20063;-54
2022/01/31 00:27:39;;;;;;;5.40;1.00;;;;;;;7.06;100.00;101719.19;5097486;28;20468;-54
2022/01/31 00:30:09;;;;;;;6.10;1.20;;;;;;;7.00;100.00;101709.69;5096596;28;20052;-54
2022/01/31 00:32:37;;;;;;;4.10;1.15;;;;;;;6.98;100.00;101710.66;5096288;28;20052;-53
2022/01/31 00:35:07;;;;;;;2.00;0.80;;;;;;;6.87;100.00;101685.41;5096449;28;20063;-54
2022/01/31 00:37:36;;;;;;;4.47;0.90;;;;;;;7.16;100.00;101703.97;5096181;28;20052;-54
2022/01/31 00:40:08;;;;;;;1.48;0.77;;;;;;;7.27;100.00;101693.13;5097259;28;20056;-54
2022/01/31 00:42:36;;;;;;;7.83;0.87;;;;;;;7.38;100.00;101686.59;5096777;28;20052;-54
2022/01/31 00:45:12;;;;;;;8.88;1.50;;;;;;;7.48;100.00;101673.09;5095740;28;20283;-54
2022/01/31 00:47:45;;;;;;;5.78;0.98;;;;;;;7.56;100.00;101664.03;5096026;28;20066;-54
2022/01/31 00:50:15;;;;;;;5.03;1.23;;;;;;;7.63;100.00;101664.72;5095959;28;20063;-54
2022/01/31 00:52:45;;;;;;;4.50;1.20;;;;;;;7.61;100.00;101663.91;5096181;28;20522;-54
2022/01/31 00:55:15;;;;;;;4.35;0.70;;;;;;;7.64;100.00;101647.97;5096646;28;20056;-54
2022/01/31 00:57:43;;;;;;;7.18;1.25;;;;;;;7.62;100.00;101665.63;5095727;28;20055;-54
2022/01/31 01:00:13;;;;;;;5.55;1.13;;;;;;;7.58;100.00;101664.88;5096286;28;20052;-54
2022/01/31 01:02:41;;;;;;;2.38;1.00;;;;;;;7.61;100.00;101669.19;5096319;28;20071;-54
2022/01/31 01:05:10;;;;;;;7.68;1.10;;;;;;;7.60;100.00;101662.19;5096787;28;20052;-54
2022/01/31 01:07:39;;;;;;;3.97;0.93;;;;;;;7.70;100.00;101663.63;5095590;28;20052;-51
2022/01/31 01:10:09;;;;;;;3.92;0.70;;;;;;;7.66;100.00;101667.25;5095876;28;20462;-51
2022/01/31 01:12:37;;;;;;;2.35;1.00;;;;;;;7.73;100.00;101662.66;5095275;28;20052;-51
2022/01/31 01:15:07;;;;;;;3.33;0.77;;;;;;;7.72;100.00;101664.44;5094330;28;20059;-51
2022/01/31 01:17:35;;;;;;;2.42;0.90;;;;;;;7.75;100.00;101672.25;5095436;28;20063;-51
2022/01/31 01:20:04;;;;;;;2.35;1.02;;;;;;;7.76;100.00;101668.69;5095675;28;20515;-51
2022/01/31 01:22:32;;;;;;;8.13;1.40;;;;;;;7.83;100.00;101664.06;5095301;28;20060;-51
2022/01/31 01:25:03;;;;;;;4.10;0.90;;;;;;;7.82;100.00;101663.22;5096469;28;20063;-51
2022/01/31 01:27:33;;;;;;;4.95;1.10;;;;;;;7.78;100.00;101651.03;5096077;28;20060;-51
2022/01/31 01:30:04;;;;;;;4.78;0.95;;;;;;;7.86;100.00;101665.78;5095167;28;20067;-51
2022/01/31 01:32:40;;;;;;;9.05;1.33;;;;;;;7.87;100.00;101675.41;5095448;28;20098;-51
2022/01/31 01:35:09;;;;;;;6.85;1.15;;;;;;;7.88;100.00;101682.44;5094812;28;20067;-51
2022/01/31 01:37:37;;;;;;;3.28;0.93;;;;;;;7.86;100.00;101678.97;5095311;28;20052;-51
2022/01/31 01:40:07;;;;;;;3.78;1.02;;;;;;;7.89;100.00;101678.88;5095269;28;20095;-51
2022/01/31 01:42:36;;;;;;;4.95;2.03;;;;;;;7.93;100.00;101673.44;5096105;28;20059;-51
2022/01/31 01:45:05;;;;;;;4.30;1.00;;;;;;;7.94;100.00;101666.38;5094666;28;20062;-51
2022/01/31 01:47:34;;;;;;;6.55;1.52;;;;;;;7.91;100.00;101650.63;5094871;28;20067;-51
2022/01/31 01:50:02;;;;;;;6.30;1.13;;;;;;;7.94;100.00;101651.38;5095256;28;20074;-51
2022/01/31 01:52:30;;;;;;;4.35;1.25;;;;;;;7.95;100.00;101673.38;5095759;28;20060;-51
2022/01/31 01:54:58;;;;;;;7.55;0.95;;;;;;;7.91;100.00;101672.63;5094822;28;20430;-51
2022/01/31 01:57:28;;;;;;;10.75;1.42;;;;;;;7.92;100.00;101669.06;5094625;28;20060;-51
2022/01/31 01:59:57;;;;;;;3.95;0.90;;;;;;;7.92;100.00;101660.28;5094669;28;20064;-51
2022/01/31 02:02:25;;;;;;;8.07;1.17;;;;;;;7.92;100.00;101658.50;5095193;28;20052;-51
2022/01/31 02:04:54;;;;;;;10.38;1.50;;;;;;;7.96;100.00;101665.41;5095213;28;20067;-51
2022/01/31 02:07:22;;;;;;;5.95;1.33;;;;;;;7.91;100.00;101669.97;5094565;28;20067;-51
2022/01/31 02:09:55;;;;;;;6.93;1.25;;;;;;;7.91;100.00;101664.69;5095659;28;20422;-51
2022/01/31 02:12:26;;;;;;;10.27;0.88;;;;;;;7.86;100.00;101663.13;5094234;28;20055;-51
2022/01/31 02:15:00;;;;;;;6.57;1.10;;;;;;;7.85;100.00;101659.63;5094213;28;20056;-51
2022/01/31 02:17:28;;;;;;;9.75;1.48;;;;;;;7.86;100.00;101668.41;5094684;28;20060;-51
2022/01/31 02:19:56;;;;;;;16.23;2.10;;;;;;;7.88;100.00;101671.84;5094649;28;20052;-51
2022/01/31 02:22:26;;;;;;;10.73;1.70;;;;;;;7.93;100.00;101654.06;5094329;28;20059;-51
2022/01/31 02:24:54;;;;;;;10.50;1.50;;;;;;;7.94;100.00;101654.03;5094943;28;20396;-51
2022/01/31 02:27:28;;;;;;;10.20;1.30;;;;;;;7.91;100.00;101655.91;5094400;28;20063;-51
2022/01/31 02:29:56;;;;;;;13.77;1.50;;;;;;;7.93;100.00;101654.06;5094538;28;20134;-51
2022/01/31 02:32:25;;;;;;;8.00;1.35;;;;;;;7.95;100.00;101663.69;5094596;28;20091;-51
2022/01/31 02:34:53;;;;;;;8.82;1.30;;;;;;;7.96;100.00;101664.56;5094338;28;20427;-51
2022/01/31 02:37:22;;;;;;;8.65;1.17;;;;;;;7.84;100.00;101667.59;5094063;28;20052;-51
2022/01/31 02:39:52;;;;;;;11.82;1.45;;;;;;;7.75;100.00;101666.97;5094142;28;20526;-51
2022/01/31 02:42:20;;;;;;;17.38;2.28;;;;;;;7.77;100.00;101675.72;5094458;28;20060;-51
2022/01/31 02:44:48;;;;;;;8.38;1.50;;;;;;;7.86;100.00;101678.97;5095303;28;20048;-51
2022/01/31 02:47:23;;;;;;;13.90;1.30;;;;;;;7.90;100.00;101670.03;5094666;28;20063;-51
2022/01/31 02:49:56;;;;;;;14.05;1.63;;;;;;;7.85;100.00;101661.38;5093867;28;20063;-51
2022/01/31 02:52:26;;;;;;;8.48;1.20;;;;;;;8.04;100.00;101681.03;5094476;28;20083;-51
2022/01/31 02:54:56;;;;;;;7.10;1.40;;;;;;;8.03;100.00;101679.28;5093770;28;20056;-51
2022/01/31 02:57:26;;;;;;;12.30;2.45;;;;;;;8.05;100.00;101677.44;5093682;28;20060;-51
2022/01/31 02:59:54;;;;;;;14.30;1.92;;;;;;;8.07;100.00;101665.06;5094679;28;20056;-51
2022/01/31 03:02:22;;;;;;;14.32;1.75;;;;;;;8.15;100.00;101663.03;5093953;28;20064;-51
2022/01/31 03:04:50;;;;;;;11.05;1.33;;;;;;;8.12;100.00;101676.34;5093719;28;20062;-51
2022/01/31 03:07:19;;;;;;;15.50;1.73;;;;;;;8.13;100.00;101688.63;5094501;28;20064;-51
2022/01/31 03:09:47;;;;;;;9.55;1.42;;;;;;;8.04;100.00;101693.38;5094758;28;20056;-51
2022/01/31 03:12:16;;;;;;;20.08;1.90;;;;;;;8.12;100.00;101700.13;5094149;28;20067;-51
2022/01/31 03:14:45;;;;;;;17.83;1.92;;;;;;;8.15;100.00;101707.09;5094547;28;20063;-52
2022/01/31 03:17:13;;;;;;;16.73;3.05;;;;;;;8.15;100.00;101713.25;5094903;28;20395;-52
2022/01/31 03:19:42;;;;;;;18.50;2.85;;;;;;;8.16;100.00;101701.75;5094948;28;20392;-52
2022/01/31 03:22:10;;;;;;;22.25;2.00;;;;;;;8.23;100.00;101709.50;5094346;28;20454;-52
2022/01/31 03:24:42;;;;;;;20.73;2.97;;;;;;;8.23;100.00;101725.34;5093805;28;20068;-52
2022/01/31 03:27:10;;;;;;;13.05;2.35;;;;;;;8.24;100.00;101716.47;5094906;28;20407;-52
2022/01/31 03:29:40;;;;;;;18.63;2.80;;;;;;;8.23;100.00;101717.41;5094718;28;20052;-52
2022/01/31 03:32:08;;;;;;;20.52;3.55;;;;;;;8.20;100.00;101721.00;5093704;28;20068;-52
2022/01/31 03:34:37;;;;;;;18.15;3.22;;;;;;;8.22;100.00;101726.25;5094326;28;20052;-52
2022/01/31 03:37:05;;;;;;;26.33;2.67;;;;;;;8.18;100.00;101734.28;5093499;28;20135;-52
2022/01/31 03:39:33;;;;;;;18.75;2.58;;;;;;;8.17;100.00;101743.13;5097213;28;20052;-52
2022/01/31 03:42:02;;;;;;;27.95;2.67;;;;;;;8.13;100.00;101741.50;5097559;28;20064;-52
2022/01/31 03:44:30;;;;;;;23.90;2.70;;;;;;;8.08;100.00;101743.41;5098682;28;20067;-52
2022/01/31 03:47:00;;;;;;;19.00;2.55;;;;;;;8.01;100.00;101752.47;5097509;28;20088;-52
2022/01/31 03:49:28;;;;;;;18.38;2.13;;;;;;;7.93;100.00;101743.91;5097375;28;20055;-52
2022/01/31 03:51:57;;;;;;;19.25;3.47;;;;;;;7.93;100.00;101738.63;5097062;28;20067;-52
2022/01/31 03:54:25;;;;;;;23.40;3.53;;;;;;;7.79;100.00;101737.28;5096742;28;20056;-52
2022/01/31 03:56:54;;;;;;;21.90;3.33;;;;;;;7.76;100.00;101726.78;5097500;28;20060;-52
2022/01/31 03:59:22;;;;;;;19.15;3.75;;;;;;;7.58;100.00;101730.00;5097187;28;20526;-52
2022/01/31 04:01:51;;;;;;;20.77;3.15;;;;;;;7.40;100.00;101726.16;5097191;28;20059;-51
2022/01/31 04:04:21;;;;;;;18.38;3.17;;;;;;;7.23;100.00;101716.94;5097141;28;20064;-52
2022/01/31 04:06:49;;;;;;;17.42;3.13;;;;;;;7.11;100.00;101732.25;5098009;28;20424;-52
2022/01/31 04:09:18;;;;;;;20.08;3.30;;;;;;;6.97;100.00;101733.50;5097017;28;20056;-52
2022/01/31 04:11:46;;;;;;;15.27;3.20;;;;;;;6.95;100.00;101732.69;5097000;28;20052;-52
2022/01/31 04:14:15;;;;;;;27.50;2.97;;;;;;;6.98;100.00;101729.97;5096966;28;20052;-52
2022/01/31 04:16:43;;;;;;;19.63;2.90;;;;;;;7.02;100.00;101739.50;5096604;28;20052;-51
2022/01/31 04:19:11;;;;;;;15.55;3.00;;;;;;;7.06;100.00;101741.19;5097717;28;20400;-51
2022/01/31 04:21:41;;;;;;;23.60;2.70;;;;;;;6.96;100.00;101755.53;5096813;28;20078;-52
2022/01/31 04:24:09;;;;;;;18.30;3.20;;;;;;;6.87;100.00;101759.25;5096652;28;20055;-51
2022/01/31 04:26:44;;;;;;;20.50;2.55;;;;;;;6.70;100.00;101757.06;5096877;28;20059;-51
2022/01/31 04:29:17;;;;;;;19.38;2.40;;;;;;;6.55;100.00;101762.75;5097294;28;20064;-52
2022/01/31 04:31:49;;;;;;;29.85;3.20;;;;;;;6.43;100.00;101756.00;5096079;28;20052;-51
2022/01/31 04:34:17;;;;;;;14.23;2.08;;;;;;;6.25;100.00;101746.78;5096625;28;20514;-51
2022/01/31 04:36:47;;;;;;;19.50;2.53;;;;;;;6.22;100.00;101746.88;5096462;28;20079;-51
2022/01/31 04:39:18;;;;;;;14.55;2.60;;;;;;;6.20;100.00;101753.94;5096491;28;20114;-51
2022/01/31 04:41:47;;;;;;;15.70;2.35;;;;;;;6.19;100.00;101754.84;5096480;28;20052;-51
2022/01/31 04:44:16;;;;;;;21.88;3.03;;;;;;;6.24;100.00;101755.59;5096334;28;20060;-51
2022/01/31 04:46:45;;;;;;;25.67;2.75;;;;;;;6.22;100.00;101759.16;5096289;28;20138;-52
2022/01/31 04:49:13;;;;;;;26.90;3.65;;;;;;;6.30;100.00;101765.13;5095948;28;20055;-51
2022/01/31 04:51:42;;;;;;;10.05;2.08;;;;;;;6.37;100.00;101782.53;5096215;28;20142;-51
2022/01/31 04:54:11;;;;;;;20.10;3.47;;;;;;;6.44;100.00;101784.13;5096189;28;20534;-51
2022/01/31 04:56:41;;;;;;;23.60;3.47;;;;;;;6.52;100.00;101791.81;5095588;28;20070;-51
2022/01/31 04:59:10;;;;;;;20.73;3.63;;;;;;;6.54;100.00;101792.66;5095739;28;20523;-51
2022/01/31 05:01:42;;;;;;;18.27;3.50;;;;;;;6.63;100.00;101784.50;5095720;28;20056;-51
2022/01/31 05:04:10;;;;;;;30.58;4.00;;;;;;;6.69;99.87;101780.84;5095598;28;20060;-52
2022/01/31 05:06:41;;;;;;;13.32;2.28;;;;;;;6.72;98.93;101787.81;5096298;28;20060;-51
2022/01/31 05:09:10;;;;;;;23.98;3.05;;;;;;;6.66;99.04;101788.84;5095429;28;20056;-51
2022/01/31 05:11:40;;;;;;;20.60;2.70;;;;;;;6.65;97.70;101787.97;5095848;28;20507;-51
2022/01/31 05:14:08;;;;;;;27.15;2.50;;;;;;;6.59;97.71;101782.88;5096000;28;20047;-51
2022/01/31 05:16:36;;;;;;;19.77;3.10;;;;;;;6.58;98.52;101789.03;5095506;28;20074;-51
2022/01/31 05:19:04;;;;;;;19.58;2.53;;;;;;;6.63;97.76;101799.47;5096478;28;20391;-51
2022/01/31 05:21:33;;;;;;;13.60;2.08;;;;;;;6.60;97.77;101789.84;5095369;28;20436;-51
2022/01/31 05:24:01;;;;;;;21.15;2.45;;;;;;;6.59;95.50;101803.97;5095784;28;20055;-51
2022/01/31 05:26:30;;;;;;;16.00;2.40;;;;;;;6.52;96.04;101797.09;5096000;28;20083;-51
2022/01/31 05:28:59;;;;;;;12.82;2.83;;;;;;;6.56;95.46;101775.03;5096338;28;20055;-51
2022/01/31 05:31:28;;;;;;;14.70;2.90;;;;;;;6.50;95.74;101783.09;5095558;28;20052;-51
2022/01/31 05:33:56;;;;;;;19.40;2.58;;;;;;;6.42;94.87;101787.69;5095112;28;20052;-51
2022/01/31 05:36:24;;;;;;;28.33;3.35;;;;;;;6.27;95.70;101791.53;5096285;28;20052;-51
2022/01/31 05:38:53;;;;;;;18.40;2.85;;;;;;;6.06;95.66;101793.78;5094918;28;20056;-51
2022/01/31 05:41:21;;;;;;;29.70;2.53;;;;;;;5.93;96.87;101787.03;5094976;28;20069;-51
2022/01/31 05:43:49;;;;;;;17.60;3.00;;;;;;;5.90;97.79;101776.53;5094915;28;20064;-51
2022/01/31 05:46:19;;;;;;;24.15;3.58;;;;;;;5.97;97.89;101767.66;5096055;28;20087;-51
2022/01/31 05:48:47;;;;;;;20.42;3.40;;;;;;;5.94;97.98;101778.22;5094854;28;20503;-51
2022/01/31 05:51:17;;;;;;;14.52;2.50;;;;;;;5.99;97.78;101786.06;5095919;28;20056;-51
2022/01/31 05:53:46;;;;;;;22.35;2.63;;;;;;;5.95;97.26;101775.56;5095048;28;20056;-51
2022/01/31 05:56:16;;;;;;;20.13;3.55;;;;;;;5.79;97.88;101758.38;5094543;28;20059;-51
2022/01/31 05:58:45;;;;;;;11.73;1.83;;;;;;;5.69;97.71;101751.56;5095226;28;20066;-51
2022/01/31 06:01:13;;;;;;;24.30;2.67;;;;;;;5.58;99.05;101755.31;5094238;28;20519;-51
2022/01/31 06:03:43;;;;;;;20.38;3.22;;;;;;;5.54;99.44;101752.78;5094896;28;20130;-51
2022/01/31 06:06:11;;;;;;;19.00;2.53;;;;;;;5.55;99.49;101757.16;5094282;28;20056;-51
2022/01/31 06:08:39;;;;;;;16.90;2.78;;;;;;;5.57;99.68;101753.56;5094808;28;20056;-51
2022/01/31 06:11:08;;;;;;;16.83;2.58;;;;;;;5.54;99.50;101753.63;5094719;28;20082;-51
2022/01/31 06:13:36;;;;;;;13.98;3.35;;;;;;;5.54;99.11;101756.25;5094404;28;20055;-51
2022/01/31 06:16:04;;;;;;;20.80;3.58;;;;;;;5.38;99.73;101761.00;5094690;28;20052;-52
2022/01/31 06:18:35;;;;;;;17.73;2.85;;;;;;;5.34;99.60;101776.88;5095112;28;20052;-51
2022/01/31 06:21:05;;;;;;;14.95;3.47;;;;;;;5.29;100.00;101789.25;5095503;28;20064;-51
2022/01/31 06:23:34;;;;;;;25.25;3.22;;;;;;;5.29;100.00;101797.13;5094643;28;20407;-51
2022/01/31 06:26:02;;;;;;;22.15;3.50;;;;;;;5.11;100.00;101796.59;5095480;28;20048;-51
2022/01/31 06:28:30;;;;;;;17.67;3.00;;;;;;;5.13;100.00;101809.72;5094156;28;20530;-51
2022/01/31 06:30:58;;;;;;;22.38;2.97;;;;;;;5.14;100.00;101800.94;5094875;28;20059;-51
2022/01/31 06:33:27;;;;;;;16.08;2.95;;;;;;;5.13;100.00;101784.28;5094446;28;20498;-51
2022/01/31 06:35:55;;;;;;;25.38;3.22;;;;;;;5.10;100.00;101799.25;5094147;28;20499;-51
2022/01/31 06:38:25;;;;;;;19.25;2.63;;;;;;;5.05;100.00;101794.09;5094021;28;20056;-51
2022/01/31 06:40:53;;;;;;;15.88;2.85;;;;;;;5.07;100.00;101789.66;5094604;28;20079;-51
2022/01/31 06:43:22;;;;;;;21.50;4.28;;;;;;;4.93;100.00;101800.44;5094270;28;20052;-51
2022/01/31 06:45:50;;;;;;;16.48;1.92;;;;;;;4.87;100.00;101782.13;5093825;28;20048;-51
2022/01/31 06:48:19;;;;;;;20.25;2.72;;;;;;;4.94;100.00;101788.13;5093784;28;20060;-51
2022/01/31 06:50:47;;;;;;;22.70;3.13;;;;;;;4.92;100.00;101779.41;5093991;28;20066;-51
2022/01/31 06:53:17;;;;;;;26.23;2.70;;;;;;;4.96;100.00;101786.34;5093946;28;20471;-51
2022/01/31 06:55:46;;;;;;;19.27;2.70;;;;;;;4.93;100.00;101786.44;5093654;28;20138;-51
2022/01/31 06:58:15;;;;;;;30.20;3.17;;;;;;;5.04;100.00;101784.44;5093490;28;20052;-51
2022/01/31 07:00:43;;;;;;;22.40;2.88;;;;;;;4.97;100.00;101798.63;5094171;28;20059;-51
2022/01/31 07:03:13;;;;;;;25.52;3.33;;;;;;;5.03;100.00;101793.25;5094671;28;20052;-51
2022/01/31 07:05:41;;;;;;;26.48;4.30;;;;;;;5.16;100.00;101799.13;5094569;28;20052;-51
2022/01/31 07:08:12;;;;;;;25.30;2.80;;;;;;;5.30;100.00;101799.75;5094435;28;20052;-51
2022/01/31 07:10:40;;;;;;;13.13;2.45;;;;;;;5.36;100.00;101790.84;5094125;28;20052;-51
2022/01/31 07:13:23;;;;;;;20.45;2.78;;;;;;;5.36;100.00;101791.75;5095759;28;20067;-51
2022/01/31 07:15:51;;;;;;;22.08;2.90;;;;;;;5.35;100.00;101795.25;5098982;28;20052;-51
2022/01/31 07:18:19;;;;;;;24.80;3.03;;;;;;;5.22;100.00;101810.41;5097614;28;20052;-51
2022/01/31 07:20:51;;;;;;;19.20;3.30;;;;;;;5.27;100.00;101801.56;5097979;28;20137;-51
2022/01/31 07:23:25;;;;;;;16.90;2.65;;;;;;;5.25;100.00;101803.38;5097767;28;20130;-51
2022/01/31 07:25:54;;;;;;;17.88;3.95;;;;;;;5.19;100.00;101799.97;5098014;28;20516;-51
2022/01/31 07:28:24;;;;;;;18.33;2.45;;;;;;;5.11;100.00;101799.25;5097628;28;20083;-51
2022/01/31 07:30:53;;;;;;;23.77;2.70;;;;;;;5.08;100.00;101812.44;5098144;28;20092;-51
2022/01/31 07:33:21;;;;;;;16.35;2.47;;;;;;;5.20;100.00;101811.34;5097379;28;20074;-51
2022/01/31 07:35:50;;;;;;;19.60;3.42;;;;;;;5.29;100.00;101810.28;5098336;28;20056;-51
2022/01/31 07:38:19;;;;;;;17.48;2.53;;;;;;;5.42;100.00;101822.31;5097263;28;20056;-51
2022/01/31 07:40:47;;;;;;;24.65;3.80;;;;;;;5.57;100.00;101811.47;5097106;28;20089;-51
2022/01/31 07:43:15;;;;;;;13.63;2.90;;;;;;;5.64;100.00;101811.34;5097182;28;20496;-51
2022/01/31 07:45:45;;;;;;;23.13;3.80;;;;;;;5.87;100.00;101814.38;5097863;28;20052;-51
2022/01/31 07:48:13;;;;;;;18.88;3.97;;;;;;;5.93;100.00;101818.63;5098062;28;20056;-51
2022/01/31 07:50:42;;;;;;;20.52;2.80;;;;;;;6.03;100.00;101811.44;5098336;28;20055;-51
2022/01/31 07:53:10;;;;;;;21.40;2.60;;;;;;;6.14;100.00;101817.31;5097191;28;20105;-52
2022/01/31 07:55:38;;;;;;;19.67;4.05;;;;;;;6.11;99.57;101815.63;5097900;28;20071;-51
2022/01/31 07:58:07;;;;;;;15.98;3.35;;;;;;;6.15;99.21;101819.03;5097563;28;20052;-52
2022/01/31 08:00:45;;;;;;;36.13;4.15;;;;;;;6.15;98.99;101813.78;5096542;28;20059;-51
2022/01/31 08:03:14;;;;;;;24.40;2.92;;;;;;;6.18;98.96;101821.63;5096599;28;20052;-51
2022/01/31 08:05:43;;;;;;;30.38;2.80;;;;;;;6.14;98.98;101823.44;5096520;28;20106;-51
2022/01/31 08:08:11;;;;;;;25.38;2.80;;;;;;;6.20;99.19;101837.38;5096776;28;20504;-51
2022/01/31 08:10:40;;;;;;;14.40;2.40;;;;;;;6.23;98.35;101847.88;5097315;28;20412;-52
2022/01/31 08:13:08;;;;;;;30.02;3.60;;;;;;;6.27;98.47;101853.03;5096658;28;20081;-52
2022/01/31 08:15:46;;;;;;;22.00;2.65;;;;;;;6.46;97.23;101861.38;5097258;28;20052;-52
2022/01/31 08:18:16;;;;;;;22.42;2.85;;;;;;;6.60;96.14;101858.41;5097705;28;20052;-52
2022/01/31 08:20:46;;;;;;;20.20;3.15;;;;;;;6.57;95.90;101861.13;5096254;28;20067;-52
2022/01/31 08:23:14;;;;;;;25.92;4.10;;;;;;;6.58;95.46;101857.59;5096171;28;20071;-52
2022/01/31 08:25:47;;;;;;;25.05;3.13;;;;;;;6.54;95.20;101863.84;5096171;28;20056;-52
2022/01/31 08:28:16;;;;;;;18.80;2.83;;;;;;;6.69;94.42;101867.84;5097029;28;20056;-52
2022/01/31 08:30:51;;;;;;;24.83;3.65;;;;;;;6.75;94.42;101872.13;5096819;28;20387;-52
2022/01/31 08:33:33;;;;;;;33.33;3.17;;;;;;;6.87;93.02;101882.38;5096355;28;20541;-52
2022/01/31 08:36:02;;;;;;;19.52;2.45;;;;;;;6.97;91.43;101877.75;5097005;28;20052;-51
2022/01/31 08:38:30;;;;;;;20.27;2.95;;;;;;;7.03;90.77;101877.59;5096532;28;20052;-52
2022/01/31 08:40:59;;;;;;;22.52;3.42;;;;;;;7.12;89.41;101903.75;5096404;28;20056;-52
2022/01/31 08:43:28;;;;;;;22.38;2.92;;;;;;;7.20;86.88;101903.56;5096114;28;20063;-51
2022/01/31 08:45:57;;;;;;;29.90;3.65;;;;;;;7.09;87.52;101918.78;5097226;28;20121;-52
2022/01/31 08:48:28;;;;;;;39.60;3.60;;;;;;;7.09;87.35;101921.41;5096600;28;20173;-52
2022/01/31 08:50:56;;;;;;;13.40;2.33;;;;;;;7.13;86.76;101909.88;5096574;28;20081;-52
2022/01/31 08:53:25;;;;;;;25.55;2.83;;;;;;;7.30;84.56;101897.13;5095833;28;20534;-52
2022/01/31 08:55:55;;;;;;;20.48;2.88;;;;;;;7.40;84.14;101890.69;5095694;28;20063;-52
2022/01/31 08:58:24;;;;;;;22.58;2.55;;;;;;;7.35;84.30;101895.22;5095570;28;20071;-52
2022/01/31 09:01:00;;;;;;;17.67;2.45;;;;;;;7.36;83.82;101907.53;5095710;28;20060;-52
2022/01/31 09:06:20;;;;;;;15.55;2.60;;;;;;;7.53;82.25;101919.38;5090965;28;20067;-52
2022/01/31 09:08:48;;;;;;;16.42;2.42;;;;;;;7.49;82.06;101915.13;5096268;28;20056;-52
2022/01/31 09:11:16;;;;;;;20.65;3.28;;;;;;;7.59;82.07;101908.69;5095737;28;20066;-52
2022/01/31 09:13:45;;;;;;;21.63;3.00;;;;;;;7.79;82.62;101919.53;5095813;28;20063;-52
2022/01/31 09:16:14;;;;;;;21.42;3.35;;;;;;;8.20;81.43;101924.53;5096390;28;20511;-52
2022/01/31 09:18:44;;;;;;;19.00;3.75;;;;;;;8.40;78.72;101925.75;5095355;28;20063;-52
2022/01/31 09:21:12;;;;;;;20.42;3.38;;;;;;;8.49;78.25;101922.81;5094808;28;20055;-52
2022/01/31 09:23:40;;;;;;;22.00;2.42;;;;;;;8.59;77.82;101918.13;5095614;28;20059;-52
2022/01/31 09:26:10;;;;;;;27.88;3.50;;;;;;;8.51;77.70;101910.44;5095920;28;20062;-52
2022/01/31 09:28:39;;;;;;;23.60;3.53;;;;;;;8.60;78.19;101925.16;5095544;28;20056;-52
2022/01/31 09:31:07;;;;;;;18.15;2.47;;;;;;;8.66;77.12;101919.69;5095844;28;20403;-52
2022/01/31 09:33:36;;;;;;;28.38;3.72;;;;;;;8.64;77.21;101918.84;5095371;28;20056;-52
2022/01/31 09:36:06;;;;;;;31.02;5.20;;;;;;;8.50;77.62;101920.13;5094945;28;20059;-52
2022/01/31 09:38:34;;;;;;;19.48;2.85;;;;;;;8.82;77.57;101920.91;5095667;28;20063;-52
2022/01/31 09:41:02;;;;;;;22.38;3.15;;;;;;;9.02;75.88;101922.03;5094949;28;20065;-52
2022/01/31 09:43:57;;;;;;;25.67;4.32;;;;;;;9.11;76.08;101933.19;5094940;28;20056;-52
2022/01/31 09:49:22;;;;;;;27.38;3.05;;;;;;;9.37;73.51;101933.22;5094860;28;20541;-52
2022/01/31 09:51:52;;;;;;;25.25;4.20;;;;;;;9.29;73.80;101929.03;5094495;28;20060;-52
2022/01/31 09:54:20;;;;;;;16.70;3.33;;;;;;;9.25;74.32;101937.16;5094674;28;20056;-52
2022/01/31 09:56:48;;;;;;;24.95;3.55;;;;;;;9.16;73.55;101940.97;5095585;28;20052;-52
2022/01/31 09:59:18;;;;;;;20.88;3.03;;;;;;;9.11;73.78;101946.44;5095603;28;20070;-52
2022/01/31 10:01:49;;;;;;;25.17;3.17;;;;;;;9.04;73.37;101949.31;5094964;28;20135;-52
2022/01/31 10:04:19;;;;;;;22.50;3.70;;;;;;;8.96;73.63;101948.69;5095929;28;20400;-52
2022/01/31 10:06:49;;;;;;;23.95;3.67;;;;;;;8.86;74.00;101956.06;5095585;28;20056;-52
2022/01/31 10:09:20;;;;;;;23.85;3.28;;;;;;;8.77;74.41;101959.88;5094779;28;20052;-52
2022/01/31 10:11:50;;;;;;;25.40;3.60;;;;;;;8.71;75.45;101971.53;5094342;28;20114;-52
2022/01/31 10:17:09;;;;;;;20.92;3.25;;;;;;;8.99;75.04;101985.66;5095208;28;20055;-52
2022/01/31 10:19:51;;;;;;;30.05;4.93;;;;;;;9.09;73.61;101976.50;5094173;28;20499;-52
2022/01/31 10:22:21;;;;;;;27.33;3.42;;;;;;;9.03;73.83;101976.72;5094426;28;20055;-52
2022/01/31 10:24:53;;;;;;;33.17;4.97;;;;;;;8.93;74.79;101987.59;5094148;28;20164;-52
2022/01/31 10:27:23;;;;;;;27.90;4.00;;;;;;;8.91;76.94;101988.56;5094031;28;20052;-52
2022/01/31 10:29:53;;;;;;;18.77;3.08;;;;;;;8.90;76.08;101981.53;5094009;28;20060;-52
2022/01/31 10:32:28;;;;;;;22.60;3.95;;;;;;;9.08;76.22;101990.69;5094070;28;20059;-52
2022/01/31 10:34:58;;;;;;;33.10;4.50;;;;;;;9.27;75.21;101986.50;5094886;28;20052;-52
2022/01/31 10:37:29;;;;;;;23.25;4.03;;;;;;;9.39;75.02;101994.94;5093937;28;20063;-52
2022/01/31 10:45:52;;;;;;;23.48;3.00;;;;;;;9.76;68.89;102010.44;5069407;28;20086;-52
2022/01/31 10:54:27;;;;;;;20.27;3.40;;;;;;;9.61;69.70;102043.63;5084065;28;20140;-52
2022/01/31 10:56:59;;;;;;;23.63;3.92;;;;;;;9.73;70.31;102046.78;5099380;28;20063;-52
2022/01/31 10:59:30;;;;;;;25.30;3.85;;;;;;;9.74;65.98;102030.00;5097844;28;20059;-52
2022/01/31 11:02:00;;;;;;;23.47;3.43;;;;;;;9.66;66.18;102040.84;5097775;28;20051;-52
2022/01/31 11:04:31;;;;;;;18.70;2.53;;;;;;;9.44;67.92;102040.69;5099190;28;20395;-52
2022/01/31 11:07:01;;;;;;;19.70;3.05;;;;;;;9.40;68.61;102039.06;5098738;28;20056;-52
2022/01/31 11:09:31;;;;;;;19.20;3.42;;;;;;;9.36;69.24;102050.66;5098707;28;20060;-52
2022/01/31 11:12:01;;;;;;;32.58;3.35;;;;;;;9.44;69.49;102053.94;5098987;28;20060;-52
2022/01/31 11:14:30;;;;;;;23.90;3.08;;;;;;;9.40;69.27;102047.88;5098430;28;20134;-52
2022/01/31 11:16:58;;;;;;;22.08;3.72;;;;;;;9.35;69.61;102062.19;5098053;28;20138;-52
2022/01/31 11:19:31;;;;;;;27.38;3.10;;;;;;;9.16;70.63;102075.13;5097751;28;20056;-52
2022/01/31 11:22:04;;;;;;;19.17;3.45;;;;;;;8.97;74.03;102066.91;5097187;28;20566;-52
2022/01/31 11:24:38;;;;;;;27.80;3.47;;;;;;;8.97;75.28;102072.19;5098476;28;20056;-52
2022/01/31 11:27:11;;;;;;;19.67;2.78;;;;;;;9.09;75.12;102072.69;5098362;28;20060;-52
2022/01/31 11:29:43;;;;;;;26.08;3.45;;;;;;;9.26;72.81;102069.50;5098028;28;20479;-52
2022/01/31 11:32:11;;;;;;;21.75;3.63;;;;;;;9.31;72.28;102079.94;5097258;28;20066;-52
2022/01/31 11:34:41;;;;;;;19.92;4.93;;;;;;;9.35;71.58;102068.34;5097210;28;20056;-52
2022/01/31 11:37:10;;;;;;;29.25;4.50;;;;;;;9.84;72.30;102084.41;5097411;28;20070;-52
2022/01/31 11:39:38;;;;;;;21.33;3.25;;;;;;;11.26;66.51;102082.75;5098484;28;20083;-52
2022/01/31 11:42:07;;;;;;;20.10;3.05;;;;;;;11.71;62.51;102075.59;5097417;28;20064;-52
2022/01/31 11:44:44;;;;;;;18.55;3.90;;;;;;;11.57;62.29;102059.38;5097720;28;20056;-52
2022/01/31 11:47:12;;;;;;;22.02;3.15;;;;;;;11.63;61.29;102075.94;5097827;28;20056;-52
2022/01/31 11:49:45;;;;;;;24.65;2.63;;;;;;;11.11;62.04;102065.63;5098222;28;20063;-52
2022/01/31 11:52:14;;;;;;;24.02;2.95;;;;;;;10.55;62.44;102064.22;5097999;28;20044;-52